Time;durP1;ratioP1;P1;durP2;ratioP2;P2;SDS_P1;SDS_P2;PMS_P1;PMS_P2;Temp;Humidity;BMP_temperature;BMP_pressure;BME280_temperature;BME280_humidity;BME280_pressure;Samples;Min_cycle;Max_cycle;Signal;HPM_P1;HPM_P2
2023/10/10 00:00:35;;;;;;;9.68;5.20;;;12.90;99.90;;;;;;5037124;28;20025;-78
2023/10/10 00:03:06;;;;;;;8.80;5.30;;;12.90;99.90;;;;;;5039380;28;20042;-78
2023/10/10 00:05:37;;;;;;;9.75;4.72;;;12.90;99.90;;;;;;5040286;28;20055;-78
2023/10/10 00:08:08;;;;;;;9.70;4.70;;;12.90;99.90;;;;;;5033629;28;20136;-78
2023/10/10 00:10:34;;;;;;;8.23;4.78;;;12.90;99.90;;;;;;5034387;28;20061;-78
2023/10/10 00:13:01;;;;;;;8.23;4.88;;;13.00;99.90;;;;;;5043728;28;20032;-78
2023/10/10 00:15:33;;;;;;;9.30;5.13;;;12.90;99.90;;;;;;5030289;28;20025;-78
2023/10/10 00:18:06;;;;;;;9.05;5.38;;;12.90;99.90;;;;;;5039241;28;20078;-78
2023/10/10 00:20:41;;;;;;;7.35;4.53;;;12.90;99.90;;;;;;5037882;28;20159;-78
2023/10/10 00:23:11;;;;;;;10.63;4.80;;;12.90;99.90;;;;;;5035643;28;20034;-78
2023/10/10 00:25:42;;;;;;;7.00;4.20;;;12.80;99.90;;;;;;5034782;28;20101;-78
2023/10/10 00:28:20;;;;;;;8.48;4.22;;;12.80;99.90;;;;;;5030559;28;20026;-78
2023/10/10 00:30:47;;;;;;;9.05;4.30;;;12.80;99.90;;;;;;5044723;28;20045;-78
2023/10/10 00:33:16;;;;;;;9.45;4.50;;;12.70;99.90;;;;;;5035809;28;20030;-78
2023/10/10 00:35:44;;;;;;;7.05;4.47;;;12.70;99.90;;;;;;5030341;28;20026;-77
2023/10/10 00:38:24;;;;;;;8.38;4.63;;;12.60;99.90;;;;;;5033294;28;20049;-77
2023/10/10 00:40:51;;;;;;;7.50;4.53;;;12.50;99.90;;;;;;5019552;28;20485;-77
2023/10/10 00:43:17;;;;;;;9.13;4.43;;;12.50;99.90;;;;;;5033463;28;20034;-77
2023/10/10 00:45:47;;;;;;;12.75;5.00;;;12.50;99.90;;;;;;5029038;28;20134;-77
2023/10/10 00:48:16;;;;;;;5.50;3.95;;;12.40;99.90;;;;;;5037444;28;20036;-77
2023/10/10 00:50:47;;;;;;;7.95;4.63;;;12.40;99.90;;;;;;5031998;28;20030;-77
2023/10/10 00:53:15;;;;;;;9.00;4.53;;;12.40;99.90;;;;;;5050415;28;20057;-77
2023/10/10 00:55:42;;;;;;;9.13;4.60;;;12.30;99.90;;;;;;5030441;28;20030;-77
2023/10/10 00:58:08;;;;;;;7.50;4.32;;;12.30;99.90;;;;;;5039514;28;20042;-77
2023/10/10 01:00:39;;;;;;;9.82;4.95;;;12.30;99.90;;;;;;5028360;28;20083;-77
2023/10/10 01:03:20;;;;;;;7.90;4.93;;;12.30;99.90;;;;;;5032396;28;20034;-77
2023/10/10 01:05:52;;;;;;;9.95;4.43;;;12.20;99.90;;;;;;5033915;28;20036;-77
2023/10/10 01:08:19;;;;;;;10.55;5.30;;;12.20;99.90;;;;;;5020299;28;20323;-77
2023/10/10 01:10:49;;;;;;;11.65;5.30;;;12.20;99.90;;;;;;5036444;28;20104;-77
2023/10/10 01:13:16;;;;;;;8.90;4.97;;;12.20;99.90;;;;;;5030608;28;20029;-77
2023/10/10 01:15:44;;;;;;;9.25;5.20;;;12.10;99.90;;;;;;5030198;28;20026;-77
2023/10/10 01:18:13;;;;;;;9.73;5.82;;;12.20;99.90;;;;;;5049872;28;20407;-77
2023/10/10 01:20:50;;;;;;;9.65;5.45;;;12.20;99.90;;;;;;5030704;28;20526;-77
2023/10/10 01:23:18;;;;;;;13.10;6.47;;;12.20;99.90;;;;;;5024739;28;20022;-77
2023/10/10 01:25:46;;;;;;;9.25;5.13;;;12.20;99.90;;;;;;5031777;28;20060;-78
2023/10/10 01:28:13;;;;;;;8.50;5.60;;;12.20;99.90;;;;;;5034552;28;20104;-78
2023/10/10 01:33:35;;;;;;;9.32;5.82;;;12.20;99.90;;;;;;5022418;28;20034;-78
2023/10/10 01:36:11;;;;;;;10.40;5.88;;;12.20;99.90;;;;;;5044787;28;20053;-77
2023/10/10 01:38:55;;;;;;;10.38;5.43;;;12.20;99.90;;;;;;5022767;28;20026;-77
2023/10/10 01:41:48;;;;;;;12.00;6.83;;;12.20;99.90;;;;;;5027775;28;20056;-77
2023/10/10 01:44:32;;;;;;;13.93;7.05;;;12.20;99.90;;;;;;5030054;28;20048;-77
2023/10/10 01:47:03;;;;;;;11.88;7.20;;;12.30;99.90;;;;;;5031445;28;20060;-78
2023/10/10 01:49:31;;;;;;;12.13;7.45;;;12.30;99.90;;;;;;5026463;28;20400;-78
2023/10/10 01:52:00;;;;;;;11.95;6.40;;;12.30;99.90;;;;;;5030699;28;20120;-77
2023/10/10 01:54:45;;;;;;;13.00;6.32;;;12.20;99.90;;;;;;5018626;28;20080;-78
2023/10/10 01:57:21;;;;;;;13.07;6.55;;;12.30;99.90;;;;;;5037765;28;20036;-78
2023/10/10 01:59:51;;;;;;;;;;;12.30;99.90;;;;;;5028214;28;20034;-77
2023/10/10 02:02:23;;;;;;;12.95;6.55;;;12.30;99.90;;;;;;5022254;28;19913;-77
2023/10/10 02:04:51;;;;;;;15.07;7.20;;;12.20;99.90;;;;;;5029051;28;20061;-77
2023/10/10 02:07:22;;;;;;;12.98;6.90;;;12.20;99.90;;;;;;5025000;28;20030;-77
2023/10/10 02:12:51;;;;;;;9.10;5.90;;;12.20;99.90;;;;;;5016572;28;20041;-77
2023/10/10 02:15:26;;;;;;;10.13;6.55;;;12.10;99.90;;;;;;5013873;28;20029;-77
2023/10/10 02:17:56;;;;;;;9.48;5.82;;;12.10;99.90;;;;;;5010696;28;20030;-77
2023/10/10 02:22:53;;;;;;;11.50;6.85;;;12.00;99.90;;;;;;5026520;28;20083;-77
2023/10/10 02:30:47;;;;;;;13.25;6.93;;;12.00;99.90;;;;;;5027544;28;20068;-77
2023/10/10 02:35:54;;;;;;;12.75;6.35;;;11.90;99.90;;;;;;5027591;28;20124;-78
2023/10/10 02:38:32;;;;;;;14.20;6.93;;;11.90;99.90;;;;;;5030481;28;20117;-79
2023/10/10 02:44:08;;;;;;;12.40;7.80;;;11.90;99.90;;;;;;5015618;28;20037;-78
2023/10/10 02:46:40;;;;;;;9.25;6.20;;;11.80;99.90;;;;;;5027681;28;20713;-75
2023/10/10 02:49:09;;;;;;;11.05;7.40;;;11.80;99.90;;;;;;5033175;28;20056;-78
2023/10/10 02:51:43;;;;;;;10.93;6.13;;;11.80;99.90;;;;;;5031609;28;20048;-78
2023/10/10 02:54:22;;;;;;;10.00;6.30;;;11.80;99.90;;;;;;5030639;28;20203;-78
2023/10/10 02:56:53;;;;;;;14.65;7.18;;;11.80;99.90;;;;;;5028041;28;20592;-79
2023/10/10 02:59:21;;;;;;;9.48;6.38;;;11.80;99.90;;;;;;5027111;28;20056;-78
2023/10/10 03:01:57;;;;;;;11.40;6.93;;;11.70;99.90;;;;;;5030946;28;20064;-78
2023/10/10 03:07:08;;;;;;;10.20;6.60;;;11.70;99.90;;;;;;5016095;28;20028;-78
2023/10/10 03:09:38;;;;;;;14.02;6.88;;;11.70;99.90;;;;;;5032648;28;20813;-78
2023/10/10 03:12:05;;;;;;;12.38;7.18;;;11.60;99.90;;;;;;5049023;28;20053;-77
2023/10/10 03:14:35;;;;;;;13.68;7.68;;;11.60;99.90;;;;;;5029585;28;20039;-77
2023/10/10 03:17:22;;;;;;;14.45;8.13;;;11.60;99.90;;;;;;5032395;28;20080;-77
2023/10/10 03:19:50;;;;;;;14.20;7.75;;;11.50;99.90;;;;;;5026844;28;20057;-77
2023/10/10 03:22:46;;;;;;;14.38;7.78;;;11.50;99.90;;;;;;5024116;28;20494;-77
2023/10/10 03:25:38;;;;;;;19.38;9.05;;;11.50;99.90;;;;;;5033626;28;20028;-77
2023/10/10 03:28:18;;;;;;;15.38;8.68;;;11.40;99.90;;;;;;5026350;28;20033;-77
2023/10/10 03:30:50;;;;;;;15.20;8.55;;;11.40;99.90;;;;;;5031874;28;20569;-77
2023/10/10 03:33:29;;;;;;;11.38;7.53;;;11.40;99.90;;;;;;5026720;28;20108;-78
2023/10/10 03:36:02;;;;;;;14.43;8.20;;;11.40;99.90;;;;;;5027881;28;20029;-79
2023/10/10 05:25:50;;;;;;;17.95;9.82;;;11.20;99.90;;;;;;5024989;28;20064;-77
2023/10/10 05:28:23;;;;;;;20.33;9.50;;;11.20;99.90;;;;;;5026971;28;20038;-77
2023/10/10 05:30:49;;;;;;;16.75;10.18;;;11.30;99.90;;;;;;5022662;28;20170;-77
2023/10/10 05:33:19;;;;;;;17.15;9.00;;;11.30;99.90;;;;;;5029999;28;20077;-77
2023/10/10 05:35:48;;;;;;;16.00;9.93;;;11.30;99.90;;;;;;5031893;28;20037;-78
2023/10/10 05:38:19;;;;;;;16.20;10.30;;;11.30;99.90;;;;;;5040809;28;20573;-79
2023/10/10 05:40:47;;;;;;;15.85;9.43;;;11.30;99.90;;;;;;5029978;28;20430;-77
2023/10/10 05:43:15;;;;;;;18.35;9.40;;;11.30;99.90;;;;;;5031517;28;20032;-79
2023/10/10 05:45:45;;;;;;;20.63;10.75;;;11.30;99.90;;;;;;5030295;28;20022;-77
2023/10/10 05:48:12;;;;;;;22.25;11.20;;;11.40;99.90;;;;;;5024100;28;20026;-77
2023/10/10 05:50:40;;;;;;;18.98;10.18;;;11.40;99.90;;;;;;5028962;28;20040;-78
2023/10/10 05:53:07;;;;;;;16.58;10.00;;;11.50;99.90;;;;;;5026154;28;20045;-77
2023/10/10 05:55:34;;;;;;;20.33;10.55;;;11.50;99.90;;;;;;5028800;28;20033;-77
2023/10/10 05:58:02;;;;;;;16.13;9.77;;;11.50;99.90;;;;;;5026797;28;20108;-77
2023/10/10 06:00:36;;;;;;;20.08;11.35;;;11.60;99.90;;;;;;5026260;28;20029;-77
2023/10/10 06:03:05;;;;;;;18.85;10.07;;;11.50;99.90;;;;;;5032354;28;20079;-78
2023/10/10 06:05:34;;;;;;;18.42;9.85;;;11.60;99.90;;;;;;5031791;28;20087;-79
2023/10/10 06:08:01;;;;;;;20.98;10.45;;;11.60;99.90;;;;;;5031648;28;20077;-77
2023/10/10 06:10:31;;;;;;;21.20;10.90;;;11.60;99.90;;;;;;5028823;28;20030;-79
2023/10/10 06:12:58;;;;;;;18.27;10.43;;;11.70;99.90;;;;;;5029826;28;20033;-76
2023/10/10 06:15:24;;;;;;;17.38;10.32;;;11.70;99.90;;;;;;5027393;28;20020;-77
2023/10/10 06:17:51;;;;;;;17.30;10.38;;;11.80;99.90;;;;;;5032980;28;20697;-77
2023/10/10 06:20:40;;;;;;;16.20;10.32;;;11.80;99.90;;;;;;5035966;28;20099;-77
2023/10/10 06:23:15;;;;;;;22.17;10.82;;;11.90;99.90;;;;;;5025973;28;20057;-78
2023/10/10 06:25:42;;;;;;;18.90;10.77;;;11.90;99.90;;;;;;5032980;28;20033;-77
2023/10/10 06:28:25;;;;;;;19.67;10.68;;;12.00;99.90;;;;;;5029915;28;20652;-78
2023/10/10 06:30:55;;;;;;;18.67;9.45;;;12.00;99.90;;;;;;5023014;28;20037;-81
2023/10/10 06:33:28;;;;;;;17.70;9.82;;;12.10;99.90;;;;;;5027279;28;20083;-78
2023/10/10 06:36:18;;;;;;;26.10;11.32;;;12.10;99.90;;;;;;5038602;28;20033;-79
2023/10/10 06:38:44;;;;;;;18.98;10.35;;;12.20;99.90;;;;;;5035120;28;20045;-78
2023/10/10 06:41:17;;;;;;;15.10;9.88;;;12.20;99.90;;;;;;5027899;28;20030;-78
2023/10/10 06:43:46;;;;;;;19.83;10.32;;;12.30;99.90;;;;;;5035133;28;20117;-78
2023/10/10 06:46:17;;;;;;;17.83;10.88;;;12.30;99.90;;;;;;5036961;28;20037;-78
2023/10/10 06:48:47;;;;;;;18.83;10.82;;;12.40;99.90;;;;;;5035752;28;20567;-78
2023/10/10 06:51:22;;;;;;;15.10;9.80;;;12.40;99.90;;;;;;5032289;28;20647;-82
2023/10/10 06:53:49;;;;;;;23.88;10.80;;;12.50;99.90;;;;;;5039843;28;20124;-80
2023/10/10 06:56:15;;;;;;;16.15;9.68;;;12.60;99.90;;;;;;5034572;28;20038;-79
2023/10/10 06:58:44;;;;;;;15.27;9.43;;;12.70;99.90;;;;;;5030877;28;20022;-79
2023/10/10 07:01:11;;;;;;;16.02;9.43;;;12.70;99.90;;;;;;5035294;28;20080;-80
2023/10/10 07:03:42;;;;;;;16.17;8.32;;;12.80;99.90;;;;;;5037180;28;20030;-79
2023/10/10 07:06:10;;;;;;;13.15;8.18;;;12.80;99.90;;;;;;5032151;28;20116;-81
2023/10/10 07:08:36;;;;;;;14.95;8.63;;;12.80;99.90;;;;;;5026261;28;20112;-77
2023/10/10 07:11:02;;;;;;;16.85;9.45;;;12.90;99.90;;;;;;5034251;28;20120;-77
2023/10/10 07:13:31;;;;;;;21.17;10.27;;;12.90;99.90;;;;;;5038581;28;20030;-78
2023/10/10 07:15:59;;;;;;;16.85;9.40;;;13.00;99.90;;;;;;5033560;28;20029;-78
2023/10/10 07:18:25;;;;;;;19.58;10.00;;;13.00;99.90;;;;;;5037481;28;20525;-79
2023/10/10 07:21:04;;;;;;;18.33;9.98;;;13.10;99.90;;;;;;5041008;28;20375;-80
2023/10/10 07:23:38;;;;;;;18.67;10.35;;;13.20;99.90;;;;;;5037800;28;20033;-80
2023/10/10 07:26:18;;;;;;;22.15;10.82;;;13.30;99.90;;;;;;5039208;28;20029;-79
2023/10/10 07:28:48;;;;;;;16.73;10.90;;;13.50;99.90;;;;;;5042073;28;20343;-79
2023/10/10 07:31:22;;;;;;;17.70;10.13;;;13.60;99.90;;;;;;5033972;28;20029;-82
2023/10/10 07:33:55;;;;;;;20.70;10.50;;;13.60;99.90;;;;;;5032590;28;20030;-80
2023/10/10 07:36:25;;;;;;;17.90;9.63;;;13.70;99.90;;;;;;5034196;28;20040;-80
2023/10/10 07:39:17;;;;;;;20.10;10.30;;;13.70;99.90;;;;;;5034211;28;20036;-78
2023/10/10 07:41:47;;;;;;;19.25;10.55;;;13.80;99.90;;;;;;5038686;28;20763;-79
2023/10/10 07:44:16;;;;;;;21.10;11.32;;;13.90;99.90;;;;;;5034471;28;20199;-78
2023/10/10 07:47:10;;;;;;;17.80;10.57;;;14.00;99.90;;;;;;5028536;28;20290;-80
2023/10/10 07:49:28;;;;;;;16.73;9.45;;;14.20;99.90;;;;;;5030288;28;20652;-78
2023/10/10 07:51:54;;;;;;;16.45;9.73;;;14.30;99.90;;;;;;5032258;28;20292;-79
2023/10/10 07:54:30;;;;;;;22.58;10.27;;;14.40;99.90;;;;;;5027513;28;20064;-78
2023/10/10 07:57:03;;;;;;;18.83;10.27;;;14.40;99.90;;;;;;5029902;28;20060;-78
2023/10/10 07:59:29;;;;;;;19.08;9.85;;;14.40;99.90;;;;;;5027481;28;20124;-79
2023/10/10 08:01:56;;;;;;;16.52;8.88;;;14.50;99.90;;;;;;5026102;28;20056;-79
2023/10/10 08:04:22;;;;;;;18.73;10.07;;;14.60;99.90;;;;;;5030715;28;20052;-79
2023/10/10 08:06:48;;;;;;;19.15;10.20;;;14.60;99.90;;;;;;5027281;28;20160;-78
2023/10/10 08:11:46;;;;;;;17.42;10.02;;;14.80;99.90;;;;;;5031266;28;20067;-80
2023/10/10 08:14:12;;;;;;;18.52;10.45;;;14.90;99.90;;;;;;5028159;28;20033;-78
2023/10/10 08:16:40;;;;;;;18.48;9.00;;;15.10;99.90;;;;;;5030909;28;20040;-79
2023/10/10 08:19:08;;;;;;;17.45;9.18;;;15.20;99.90;;;;;;5031127;28;20017;-78
2023/10/10 08:21:39;;;;;;;21.83;10.70;;;15.30;99.90;;;;;;5035783;28;20024;-79
2023/10/10 08:24:11;;;;;;;18.58;8.88;;;15.30;99.90;;;;;;5030270;28;20534;-78
2023/10/10 08:26:41;;;;;;;19.23;10.43;;;15.40;99.90;;;;;;5031948;28;20063;-79
2023/10/10 08:29:11;;;;;;;15.38;8.82;;;15.30;99.90;;;;;;5029796;28;20041;-78
2023/10/10 08:31:42;;;;;;;19.25;9.82;;;15.40;99.90;;;;;;5031753;28;20025;-79
2023/10/10 08:34:09;;;;;;;18.48;8.63;;;15.30;99.90;;;;;;5028012;28;20029;-77
2023/10/10 08:36:37;;;;;;;15.32;8.85;;;15.30;99.90;;;;;;5031264;28;20729;-79
2023/10/10 08:41:44;;;;;;;15.20;8.70;;;15.40;99.90;;;;;;5026787;28;20161;-80
2023/10/10 08:44:14;;;;;;;14.05;8.27;;;15.40;99.90;;;;;;5029853;28;20394;-78
2023/10/10 08:46:45;;;;;;;17.00;9.05;;;15.40;99.90;;;;;;5034168;28;20116;-78
2023/10/10 08:49:12;;;;;;;16.38;9.05;;;15.50;99.90;;;;;;5032331;28;20120;-80
2023/10/10 08:51:39;;;;;;;16.58;9.05;;;15.60;99.90;;;;;;5029318;28;20034;-79
2023/10/10 08:54:12;;;;;;;20.88;9.00;;;15.70;99.90;;;;;;5030612;28;20115;-79
2023/10/10 08:57:00;;;;;;;17.70;9.00;;;15.90;99.90;;;;;;5032926;28;20033;-80
2023/10/10 08:59:28;;;;;;;17.38;9.25;;;16.00;99.90;;;;;;5028166;28;20076;-78
2023/10/10 09:02:17;;;;;;;13.23;8.20;;;16.10;99.90;;;;;;5031087;28;20630;-79
2023/10/10 09:04:43;;;;;;;15.43;9.52;;;16.10;99.90;;;;;;5003452;28;20029;-78
2023/10/10 09:10:13;;;;;;;15.88;8.65;;;16.30;99.90;;;;;;5002621;28;20493;-78
2023/10/10 09:12:56;;;;;;;15.80;8.80;;;16.30;99.90;;;;;;5024706;28;20070;-78
2023/10/10 09:15:25;;;;;;;12.75;7.57;;;16.30;99.90;;;;;;5024614;28;20487;-79
2023/10/10 09:17:58;;;;;;;12.50;7.68;;;16.40;99.90;;;;;;5023303;28;20033;-78
2023/10/10 09:20:32;;;;;;;13.85;7.85;;;16.40;99.90;;;;;;5024025;28;20060;-79
2023/10/10 09:23:11;;;;;;;9.27;6.55;;;16.40;99.90;;;;;;5025992;28;20151;-78
2023/10/10 09:25:44;;;;;;;13.48;7.07;;;16.40;99.90;;;;;;5030664;28;20071;-80
2023/10/10 09:28:16;;;;;;;12.68;8.23;;;16.40;99.90;;;;;;5024206;28;20025;-81
2023/10/10 09:31:12;;;;;;;13.50;8.35;;;16.40;99.90;;;;;;5029427;28;20038;-79
2023/10/10 09:33:42;;;;;;;16.40;8.23;;;16.40;99.90;;;;;;5014119;28;20038;-78
2023/10/10 09:36:08;;;;;;;15.30;8.43;;;16.50;99.90;;;;;;5025656;28;20112;-78
2023/10/10 09:38:48;;;;;;;16.23;9.77;;;16.50;99.90;;;;;;5029292;28;20022;-78
2023/10/10 09:49:51;;;;;;;14.23;9.88;;;16.70;99.90;;;;;;5030299;28;20032;-80
2023/10/10 09:57:40;;;;;;;15.40;8.93;;;17.00;99.90;;;;;;5027012;28;20035;-78
2023/10/10 10:00:13;;;;;;;18.98;8.88;;;17.10;99.90;;;;;;5022372;28;20450;-79
2023/10/10 10:02:48;;;;;;;19.63;8.60;;;17.20;99.90;;;;;;5027524;28;20025;-78
2023/10/10 10:05:18;;;;;;;17.27;9.73;;;17.20;99.90;;;;;;5024003;28;20613;-78
2023/10/10 10:07:56;;;;;;;12.32;7.43;;;17.20;99.90;;;;;;5029043;28;20091;-79
2023/10/10 10:10:49;;;;;;;14.32;8.80;;;17.30;99.90;;;;;;5032031;28;20033;-78
2023/10/10 10:13:38;;;;;;;12.27;8.32;;;17.40;99.90;;;;;;5018207;28;20037;-79
2023/10/10 10:16:25;;;;;;;14.70;7.88;;;17.40;99.90;;;;;;5026706;28;20061;-79
2023/10/10 10:19:10;;;;;;;11.90;7.03;;;17.50;99.90;;;;;;5029496;28;20022;-79
2023/10/10 10:21:52;;;;;;;14.02;7.53;;;17.60;99.90;;;;;;5029445;28;20040;-80
2023/10/10 10:24:30;;;;;;;18.23;7.15;;;17.60;99.90;;;;;;5037199;28;20059;-79
2023/10/10 10:27:31;;;;;;;9.43;6.47;;;17.60;99.90;;;;;;5025219;28;20037;-79
2023/10/10 10:32:37;;;;;;;14.70;7.50;;;17.70;99.90;;;;;;5034275;28;20033;-79
2023/10/10 10:35:08;;;;;;;13.45;7.10;;;17.70;99.90;;;;;;5029934;28;20025;-78
2023/10/10 10:37:35;;;;;;;13.27;6.93;;;17.70;99.90;;;;;;5023666;28;20030;-78
2023/10/10 10:42:46;;;;;;;12.30;6.70;;;17.90;99.90;;;;;;5032735;28;20037;-79
2023/10/10 10:45:41;;;;;;;12.70;6.53;;;17.90;99.90;;;;;;5035761;28;20030;-79
2023/10/10 10:48:09;;;;;;;12.57;7.25;;;17.90;99.90;;;;;;5039558;28;20029;-78
2023/10/10 10:50:40;;;;;;;11.00;6.63;;;18.00;99.90;;;;;;5040081;28;20039;-79
2023/10/10 10:53:20;;;;;;;12.40;6.00;;;18.10;99.90;;;;;;5040794;28;20033;-79
2023/10/10 10:56:06;;;;;;;12.30;7.25;;;18.10;99.90;;;;;;5028868;28;20445;-79
2023/10/10 10:58:47;;;;;;;11.25;6.55;;;18.20;99.90;;;;;;5025791;28;20053;-78
2023/10/10 11:01:17;;;;;;;10.95;6.68;;;18.20;99.90;;;;;;5037482;28;20040;-79
2023/10/10 11:04:05;;;;;;;12.02;6.15;;;18.30;99.90;;;;;;5031935;28;20486;-78
2023/10/10 11:06:31;;;;;;;13.13;5.97;;;18.30;99.90;;;;;;5031533;28;20046;-78
2023/10/10 11:09:09;;;;;;;13.77;7.05;;;18.50;99.90;;;;;;5028424;28;20609;-78
2023/10/10 11:14:04;;;;;;;13.70;5.70;;;18.80;99.90;;;;;;5037505;28;20041;-79
2023/10/10 11:16:37;;;;;;;12.43;5.90;;;18.90;99.90;;;;;;5031916;28;20124;-79
2023/10/10 11:19:38;;;;;;;15.52;6.47;;;19.00;99.90;;;;;;5032775;28;20088;-79
2023/10/10 11:22:05;;;;;;;10.85;5.75;;;19.10;99.90;;;;;;5030289;28;20497;-78
2023/10/10 11:24:34;;;;;;;12.07;5.80;;;19.10;99.90;;;;;;5035432;28;20033;-78
2023/10/10 11:29:41;;;;;;;10.75;5.43;;;19.10;99.90;;;;;;5039018;28;20045;-79
2023/10/10 11:32:08;;;;;;;11.80;5.10;;;19.10;99.90;;;;;;5026138;28;20462;-78
2023/10/10 11:34:44;;;;;;;9.43;5.00;;;19.00;99.90;;;;;;5039007;28;20112;-78
2023/10/10 11:37:23;;;;;;;8.98;5.40;;;19.00;99.90;;;;;;5034811;28;20036;-79
2023/10/10 11:39:57;;;;;;;8.02;5.30;;;19.00;99.90;;;;;;5039417;28;20140;-80
2023/10/10 11:42:24;;;;;;;7.78;4.72;;;18.90;99.90;;;;;;5041727;28;20042;-79
2023/10/10 11:45:17;;;;;;;9.50;4.95;;;18.90;99.90;;;;;;5038561;28;20049;-79
2023/10/10 11:47:44;;;;;;;8.07;4.60;;;18.80;99.90;;;;;;5038352;28;20040;-79
2023/10/10 11:50:12;;;;;;;10.52;5.00;;;18.80;99.90;;;;;;5041873;28;20281;-79
2023/10/10 11:52:56;;;;;;;10.70;5.22;;;18.80;99.90;;;;;;5046218;28;20029;-79
2023/10/10 11:55:25;;;;;;;10.02;4.53;;;18.80;99.90;;;;;;5037773;28;20029;-79
2023/10/10 11:57:57;;;;;;;6.05;4.28;;;18.80;99.90;;;;;;5039953;28;20122;-81
2023/10/10 12:00:38;;;;;;;8.65;4.30;;;18.80;99.90;;;;;;5041249;28;20025;-80
2023/10/10 12:03:05;;;;;;;11.40;6.45;;;18.80;99.90;;;;;;5038403;28;20098;-80
2023/10/10 12:08:01;;;;;;;11.98;5.03;;;19.10;99.90;;;;;;5036359;28;20069;-80
2023/10/10 12:13:19;;;;;;;10.82;5.90;;;19.30;99.90;;;;;;5037621;28;20396;-79
2023/10/10 12:15:48;;;;;;;8.50;5.18;;;19.40;99.90;;;;;;5028042;28;20454;-79
2023/10/10 12:18:14;;;;;;;8.15;4.50;;;19.40;99.90;;;;;;5034998;28;20469;-79
2023/10/10 12:20:46;;;;;;;15.15;5.05;;;19.50;99.90;;;;;;5033556;28;20025;-81
2023/10/10 12:23:12;;;;;;;8.10;4.43;;;19.60;99.90;;;;;;5034082;28;20025;-79
2023/10/10 12:25:41;;;;;;;9.77;4.25;;;19.60;99.90;;;;;;5035333;28;20033;-79
2023/10/10 12:28:12;;;;;;;9.00;4.20;;;19.70;99.90;;;;;;5031695;28;20032;-79
2023/10/10 12:30:41;;;;;;;6.70;4.20;;;19.70;99.90;;;;;;5034002;28;20043;-79
2023/10/10 12:33:19;;;;;;;9.45;4.80;;;19.80;99.90;;;;;;5037351;28;20037;-79
2023/10/10 12:35:48;;;;;;;6.47;3.83;;;19.90;99.90;;;;;;5027906;28;20037;-77
2023/10/10 12:38:20;;;;;;;5.20;3.75;;;19.90;99.90;;;;;;5032627;28;20024;-75
2023/10/10 12:40:56;;;;;;;6.97;4.35;;;20.10;99.90;;;;;;5031843;28;20060;-80
2023/10/10 12:43:25;;;;;;;8.45;5.00;;;20.10;99.90;;;;;;5034966;28;20037;-79
2023/10/10 12:45:54;;;;;;;12.45;4.63;;;20.10;99.90;;;;;;5034990;28;20022;-78
2023/10/10 12:48:21;;;;;;;6.60;3.92;;;20.20;99.90;;;;;;5030462;28;20034;-78
2023/10/10 12:50:48;;;;;;;6.13;4.15;;;20.20;99.90;;;;;;5038368;28;20042;-78
2023/10/10 12:53:21;;;;;;;8.45;4.05;;;20.30;99.90;;;;;;5037153;28;20102;-78
2023/10/10 12:56:04;;;;;;;6.97;4.43;;;20.30;99.90;;;;;;5035421;28;20041;-79
2023/10/10 12:58:31;;;;;;;6.97;4.72;;;20.30;99.90;;;;;;5036798;28;20026;-80
2023/10/10 13:00:58;;;;;;;7.85;4.00;;;20.30;99.90;;;;;;5041938;28;20128;-79
2023/10/10 13:03:29;;;;;;;8.00;4.10;;;20.20;99.90;;;;;;5037330;28;20032;-78
2023/10/10 13:06:00;;;;;;;6.47;3.80;;;20.20;99.90;;;;;;5035422;28;20025;-78
2023/10/10 13:08:38;;;;;;;6.45;3.63;;;20.10;99.90;;;;;;5042139;28;20547;-79
2023/10/10 13:11:14;;;;;;;8.23;3.80;;;20.00;99.90;;;;;;5036791;28;20508;-78
2023/10/10 13:13:52;;;;;;;8.00;3.90;;;20.00;99.90;;;;;;5035976;28;20021;-78
2023/10/10 13:16:26;;;;;;;6.63;3.35;;;19.90;99.90;;;;;;5036356;28;20029;-80
2023/10/10 13:18:54;;;;;;;9.02;4.05;;;19.80;99.90;;;;;;5031513;28;20034;-80
2023/10/10 13:21:20;;;;;;;7.50;3.95;;;19.70;99.90;;;;;;5035969;28;20536;-80
2023/10/10 13:23:53;;;;;;;9.48;4.15;;;19.70;99.90;;;;;;5035652;28;20030;-80
2023/10/10 13:26:22;;;;;;;9.00;3.97;;;19.60;99.90;;;;;;5029985;28;20454;-80
2023/10/10 13:28:49;;;;;;;6.05;3.47;;;19.70;99.90;;;;;;5037316;28;20558;-79
2023/10/10 13:31:17;;;;;;;7.20;3.67;;;19.60;99.90;;;;;;5034182;28;20508;-80
2023/10/10 13:33:44;;;;;;;6.13;3.75;;;19.40;99.90;;;;;;5030879;28;20065;-77
2023/10/10 13:36:17;;;;;;;12.07;3.97;;;19.30;99.90;;;;;;5022215;28;20037;-79
2023/10/10 13:38:48;;;;;;;7.60;3.63;;;19.20;99.90;;;;;;5025949;28;20436;-78
2023/10/10 13:41:22;;;;;;;6.25;3.90;;;19.10;99.90;;;;;;5017728;28;20041;-78
2023/10/10 13:43:50;;;;;;;8.25;4.20;;;19.10;99.90;;;;;;5031054;28;20490;-78
2023/10/10 13:46:20;;;;;;;6.50;3.90;;;19.00;99.90;;;;;;5029548;28;20109;-81
2023/10/10 13:48:47;;;;;;;8.45;4.28;;;19.00;99.90;;;;;;5026522;28;20037;-79
2023/10/10 13:51:14;;;;;;;9.68;4.50;;;19.00;99.90;;;;;;5026793;28;20049;-77
2023/10/10 13:53:44;;;;;;;8.13;3.65;;;18.90;99.90;;;;;;5030822;28;20063;-79
2023/10/10 13:56:16;;;;;;;7.50;3.85;;;18.90;99.90;;;;;;5025861;28;20045;-78
2023/10/10 13:58:52;;;;;;;11.73;3.83;;;18.90;99.90;;;;;;5024178;28;20533;-79
2023/10/10 14:01:18;;;;;;;;;;;18.80;99.90;;;;;;5027361;28;20057;-80
2023/10/10 14:03:46;;;;;;;8.85;3.88;;;18.80;99.90;;;;;;5036732;28;19915;-79
2023/10/10 14:06:22;;;;;;;8.55;3.83;;;18.90;99.90;;;;;;5037696;28;20030;-79
2023/10/10 14:08:48;;;;;;;8.05;4.32;;;18.80;99.90;;;;;;5030858;28;20043;-78
2023/10/10 14:11:20;;;;;;;7.20;4.20;;;18.80;99.90;;;;;;5026951;28;20037;-77
2023/10/10 14:13:56;;;;;;;6.32;4.32;;;18.70;99.90;;;;;;5023717;28;20068;-78
2023/10/10 14:16:23;;;;;;;8.85;3.85;;;18.70;99.90;;;;;;5023015;28;20035;-78
2023/10/10 14:18:50;;;;;;;10.40;4.05;;;18.70;99.90;;;;;;5029424;28;20031;-78
2023/10/10 14:21:24;;;;;;;8.90;3.80;;;18.70;99.90;;;;;;5020699;28;20021;-77
2023/10/10 14:24:13;;;;;;;8.52;4.28;;;18.70;99.90;;;;;;5034477;28;20039;-78
2023/10/10 14:26:43;;;;;;;7.25;4.03;;;18.60;99.90;;;;;;5024113;28;20036;-78
2023/10/10 14:29:12;;;;;;;8.77;3.80;;;18.60;99.90;;;;;;5026398;28;20120;-78
2023/10/10 14:31:42;;;;;;;8.23;4.15;;;18.60;99.90;;;;;;5030989;28;21331;-78
2023/10/10 14:34:11;;;;;;;9.60;4.32;;;18.60;99.90;;;;;;5031216;28;20037;-79
2023/10/10 14:36:39;;;;;;;10.43;4.28;;;18.60;99.90;;;;;;5026710;28;20040;-77
2023/10/10 14:39:08;;;;;;;9.30;4.50;;;18.60;99.90;;;;;;5033897;28;20041;-78
2023/10/10 14:41:35;;;;;;;9.45;3.92;;;18.60;99.90;;;;;;5027439;28;20727;-78
2023/10/10 14:44:01;;;;;;;4.15;3.60;;;18.50;99.90;;;;;;5028425;28;20032;-77
2023/10/10 14:46:31;;;;;;;7.82;4.10;;;18.50;99.90;;;;;;5027571;28;20064;-79
2023/10/10 14:49:16;;;;;;;8.60;4.45;;;18.50;99.90;;;;;;5031126;28;20057;-78
2023/10/10 14:51:48;;;;;;;6.70;3.93;;;18.50;99.90;;;;;;5028738;28;20329;-78
2023/10/10 14:54:17;;;;;;;7.50;4.25;;;18.50;99.90;;;;;;5034684;28;20449;-79
2023/10/10 14:56:49;;;;;;;8.95;3.97;;;18.50;99.90;;;;;;5031165;28;20554;-78
2023/10/10 14:59:18;;;;;;;5.63;3.80;;;18.50;99.90;;;;;;5037757;28;20529;-77
2023/10/10 15:01:50;;;;;;;7.43;3.97;;;18.40;99.90;;;;;;5033222;28;20061;-78
2023/10/10 15:04:19;;;;;;;7.18;4.22;;;18.40;99.90;;;;;;5035355;28;20107;-78
2023/10/10 15:06:46;;;;;;;6.07;3.70;;;18.40;99.90;;;;;;5035212;28;20044;-78
2023/10/10 15:09:20;;;;;;;8.25;3.83;;;18.40;99.90;;;;;;5035884;28;20036;-80
2023/10/10 15:11:47;;;;;;;7.95;4.38;;;18.30;99.90;;;;;;5031681;28;20029;-79
2023/10/10 15:14:14;;;;;;;9.88;4.85;;;18.30;99.90;;;;;;5043875;28;20385;-78
2023/10/10 15:16:41;;;;;;;8.10;4.18;;;18.30;99.90;;;;;;5039158;28;20100;-78
2023/10/10 15:19:08;;;;;;;8.02;4.00;;;18.30;99.90;;;;;;5035095;28;20040;-80
2023/10/10 15:21:38;;;;;;;6.45;4.10;;;18.30;99.90;;;;;;5033847;28;20040;-78
2023/10/10 15:24:11;;;;;;;8.75;4.13;;;18.30;99.90;;;;;;5034963;28;20038;-77
2023/10/10 15:26:41;;;;;;;8.57;3.58;;;18.20;99.90;;;;;;5029313;28;20038;-79
2023/10/10 15:29:10;;;;;;;7.20;3.90;;;18.20;99.90;;;;;;5031608;28;20033;-78
2023/10/10 15:31:38;;;;;;;7.70;3.92;;;18.20;99.90;;;;;;5032479;28;20533;-78
2023/10/10 15:34:04;;;;;;;6.82;3.90;;;18.20;99.90;;;;;;5030671;28;20034;-79
2023/10/10 15:36:30;;;;;;;8.85;4.10;;;18.10;99.90;;;;;;5028777;28;20037;-79
2023/10/10 15:39:07;;;;;;;9.93;4.32;;;18.10;99.90;;;;;;5037927;28;20065;-78
2023/10/10 15:41:37;;;;;;;8.38;3.83;;;18.00;99.90;;;;;;5032983;28;20018;-78
2023/10/10 15:44:03;;;;;;;7.20;4.30;;;18.00;99.90;;;;;;5031592;28;20031;-78
2023/10/10 15:46:37;;;;;;;8.88;4.28;;;17.90;99.90;;;;;;5030020;28;20037;-79
2023/10/10 15:49:11;;;;;;;8.50;3.97;;;17.90;99.90;;;;;;5031737;28;20049;-78
2023/10/10 15:51:40;;;;;;;8.27;4.13;;;17.90;99.90;;;;;;5024292;28;20063;-78